sensor_id;sensor_type;location;lat;lon;timestamp;temperature;humidity
59660;DHT22;45534;52.690;6.268;2023-01-29T00:01:41;3.60;99.90
59660;DHT22;45534;52.690;6.268;2023-01-29T00:04:07;3.60;99.90
59660;DHT22;45534;52.690;6.268;2023-01-29T00:06:33;3.60;99.90
59660;DHT22;45534;52.690;6.268;2023-01-29T00:08:59;3.60;99.90
59660;DHT22;45534;52.690;6.268;2023-01-29T00:11:24;3.60;99.90
59660;DHT22;45534;52.690;6.268;2023-01-29T00:13:51;3.60;99.90
59660;DHT22;45534;52.690;6.268;2023-01-29T00:16:17;3.60;99.90
59660;DHT22;45534;52.690;6.268;2023-01-29T00:18:43;3.60;99.90
59660;DHT22;45534;52.690;6.268;2023-01-29T00:21:10;3.60;99.90
59660;DHT22;45534;52.690;6.268;2023-01-29T00:23:36;3.60;99.90
59660;DHT22;45534;52.690;6.268;2023-01-29T00:26:01;3.60;99.90
59660;DHT22;45534;52.690;6.268;2023-01-29T00:28:27;3.50;99.90
59660;DHT22;45534;52.690;6.268;2023-01-29T00:30:53;3.60;99.90
59660;DHT22;45534;52.690;6.268;2023-01-29T00:33:18;3.60;99.90
59660;DHT22;45534;52.690;6.268;2023-01-29T00:35:44;3.60;99.90
59660;DHT22;45534;52.690;6.268;2023-01-29T00:38:10;3.60;99.90
59660;DHT22;45534;52.690;6.268;2023-01-29T00:40:39;3.60;99.90
59660;DHT22;45534;52.690;6.268;2023-01-29T00:43:24;3.60;99.90
59660;DHT22;45534;52.690;6.268;2023-01-29T00:46:08;3.60;99.90
59660;DHT22;45534;52.690;6.268;2023-01-29T00:48:34;3.60;99.90
59660;DHT22;45534;52.690;6.268;2023-01-29T00:51:01;3.60;99.90
59660;DHT22;45534;52.690;6.268;2023-01-29T00:53:27;3.60;99.90
59660;DHT22;45534;52.690;6.268;2023-01-29T00:55:53;3.60;99.90
59660;DHT22;45534;52.690;6.268;2023-01-29T00:58:19;3.60;99.90
59660;DHT22;45534;52.690;6.268;2023-01-29T01:01:01;3.60;99.90
59660;DHT22;45534;52.690;6.268;2023-01-29T01:03:28;3.60;99.90
59660;DHT22;45534;52.690;6.268;2023-01-29T01:06:08;3.60;99.90
59660;DHT22;45534;52.690;6.268;2023-01-29T01:08:35;3.60;99.90
59660;DHT22;45534;52.690;6.268;2023-01-29T01:11:20;3.60;99.90
59660;DHT22;45534;52.690;6.268;2023-01-29T01:13:45;3.60;99.90
59660;DHT22;45534;52.690;6.268;2023-01-29T01:16:13;3.60;99.90
59660;DHT22;45534;52.690;6.268;2023-01-29T01:18:40;3.60;99.90
59660;DHT22;45534;52.690;6.268;2023-01-29T01:21:05;3.60;99.90
59660;DHT22;45534;52.690;6.268;2023-01-29T01:23:32;3.60;99.90
59660;DHT22;45534;52.690;6.268;2023-01-29T01:25:57;3.60;99.90
59660;DHT22;45534;52.690;6.268;2023-01-29T01:28:23;3.60;99.90
59660;DHT22;45534;52.690;6.268;2023-01-29T01:30:49;3.60;99.90
59660;DHT22;45534;52.690;6.268;2023-01-29T01:33:15;3.60;99.90
59660;DHT22;45534;52.690;6.268;2023-01-29T01:35:41;3.60;99.90
59660;DHT22;45534;52.690;6.268;2023-01-29T01:38:06;3.60;99.90
59660;DHT22;45534;52.690;6.268;2023-01-29T01:40:32;3.60;99.90
59660;DHT22;45534;52.690;6.268;2023-01-29T01:42:59;3.60;99.90
59660;DHT22;45534;52.690;6.268;2023-01-29T01:50:44;3.60;99.90
59660;DHT22;45534;52.690;6.268;2023-01-29T01:53:14;3.60;99.90
59660;DHT22;45534;52.690;6.268;2023-01-29T01:55:57;3.60;99.90
59660;DHT22;45534;52.690;6.268;2023-01-29T01:58:31;3.60;99.90
59660;DHT22;45534;52.690;6.268;2023-01-29T02:00:58;3.60;99.90
59660;DHT22;45534;52.690;6.268;2023-01-29T02:03:24;3.60;99.90
59660;DHT22;45534;52.690;6.268;2023-01-29T02:06:10;3.70;99.90
59660;DHT22;45534;52.690;6.268;2023-01-29T02:08:59;3.70;99.90
59660;DHT22;45534;52.690;6.268;2023-01-29T02:11:44;3.70;99.90
59660;DHT22;45534;52.690;6.268;2023-01-29T02:14:10;3.70;99.90
59660;DHT22;45534;52.690;6.268;2023-01-29T02:16:37;3.70;99.90
59660;DHT22;45534;52.690;6.268;2023-01-29T02:19:06;3.70;99.90
59660;DHT22;45534;52.690;6.268;2023-01-29T02:24:43;3.70;99.90
59660;DHT22;45534;52.690;6.268;2023-01-29T02:27:19;3.70;99.90
59660;DHT22;45534;52.690;6.268;2023-01-29T02:32:49;3.70;99.90
59660;DHT22;45534;52.690;6.268;2023-01-29T02:43:29;3.70;99.90
59660;DHT22;45534;52.690;6.268;2023-01-29T02:46:32;3.70;99.90
59660;DHT22;45534;52.690;6.268;2023-01-29T02:52:08;3.70;99.90
59660;DHT22;45534;52.690;6.268;2023-01-29T02:54:44;3.70;99.90
59660;DHT22;45534;52.690;6.268;2023-01-29T02:57:19;3.70;99.90
59660;DHT22;45534;52.690;6.268;2023-01-29T03:00:04;3.70;99.90
59660;DHT22;45534;52.690;6.268;2023-01-29T03:02:45;3.70;99.90
59660;DHT22;45534;52.690;6.268;2023-01-29T03:05:16;3.70;99.90
59660;DHT22;45534;52.690;6.268;2023-01-29T03:07:52;3.70;99.90
59660;DHT22;45534;52.690;6.268;2023-01-29T03:10:39;3.70;99.90
59660;DHT22;45534;52.690;6.268;2023-01-29T03:14:06;3.80;99.90
59660;DHT22;45534;52.690;6.268;2023-01-29T03:21:46;3.80;99.90
59660;DHT22;45534;52.690;6.268;2023-01-29T03:24:47;3.80;99.90
59660;DHT22;45534;52.690;6.268;2023-01-29T03:27:42;3.80;99.90
59660;DHT22;45534;52.690;6.268;2023-01-29T03:30:27;3.80;99.90
59660;DHT22;45534;52.690;6.268;2023-01-29T03:33:15;3.80;99.90
59660;DHT22;45534;52.690;6.268;2023-01-29T03:35:55;3.80;99.90
59660;DHT22;45534;52.690;6.268;2023-01-29T03:38:23;3.80;99.90
59660;DHT22;45534;52.690;6.268;2023-01-29T03:41:27;3.80;99.90
59660;DHT22;45534;52.690;6.268;2023-01-29T03:44:24;3.80;99.90
59660;DHT22;45534;52.690;6.268;2023-01-29T03:52:20;3.80;99.90
59660;DHT22;45534;52.690;6.268;2023-01-29T04:00:33;3.90;99.90
59660;DHT22;45534;52.690;6.268;2023-01-29T04:03:23;3.90;99.90
59660;DHT22;45534;52.690;6.268;2023-01-29T04:05:58;3.80;99.90
59660;DHT22;45534;52.690;6.268;2023-01-29T04:08:33;3.90;99.90
59660;DHT22;45534;52.690;6.268;2023-01-29T04:11:05;3.90;99.90
59660;DHT22;45534;52.690;6.268;2023-01-29T04:13:33;3.90;99.90
59660;DHT22;45534;52.690;6.268;2023-01-29T04:16:00;3.90;99.90
59660;DHT22;45534;52.690;6.268;2023-01-29T04:18:26;3.90;99.90
59660;DHT22;45534;52.690;6.268;2023-01-29T04:20:52;3.90;99.90
59660;DHT22;45534;52.690;6.268;2023-01-29T04:23:24;3.90;99.90
59660;DHT22;45534;52.690;6.268;2023-01-29T04:31:56;3.90;99.90
59660;DHT22;45534;52.690;6.268;2023-01-29T04:34:28;3.90;99.90
59660;DHT22;45534;52.690;6.268;2023-01-29T04:37:19;3.90;99.90
59660;DHT22;45534;52.690;6.268;2023-01-29T04:40:02;3.90;99.90
59660;DHT22;45534;52.690;6.268;2023-01-29T04:45:17;3.80;99.90
59660;DHT22;45534;52.690;6.268;2023-01-29T04:47:59;3.80;99.90
59660;DHT22;45534;52.690;6.268;2023-01-29T04:50:35;3.80;99.90
59660;DHT22;45534;52.690;6.268;2023-01-29T04:53:17;3.80;99.90
59660;DHT22;45534;52.690;6.268;2023-01-29T04:56:07;3.80;99.90
59660;DHT22;45534;52.690;6.268;2023-01-29T04:58:41;3.80;99.90
59660;DHT22;45534;52.690;6.268;2023-01-29T05:01:12;3.80;99.90
59660;DHT22;45534;52.690;6.268;2023-01-29T05:03:41;3.80;99.90
59660;DHT22;45534;52.690;6.268;2023-01-29T05:06:09;3.80;99.90
59660;DHT22;45534;52.690;6.268;2023-01-29T05:08:36;3.80;99.90
59660;DHT22;45534;52.690;6.268;2023-01-29T05:11:03;3.80;99.90
59660;DHT22;45534;52.690;6.268;2023-01-29T05:13:30;3.80;99.90
59660;DHT22;45534;52.690;6.268;2023-01-29T05:18:41;3.80;99.90
59660;DHT22;45534;52.690;6.268;2023-01-29T05:21:08;3.80;99.90
59660;DHT22;45534;52.690;6.268;2023-01-29T05:23:34;3.80;99.90
59660;DHT22;45534;52.690;6.268;2023-01-29T05:26:00;3.80;99.90
59660;DHT22;45534;52.690;6.268;2023-01-29T05:28:25;3.80;99.90
59660;DHT22;45534;52.690;6.268;2023-01-29T05:30:54;3.80;99.90
59660;DHT22;45534;52.690;6.268;2023-01-29T05:33:31;3.70;99.90
59660;DHT22;45534;52.690;6.268;2023-01-29T05:36:00;3.70;99.90
59660;DHT22;45534;52.690;6.268;2023-01-29T05:38:25;3.70;99.90
59660;DHT22;45534;52.690;6.268;2023-01-29T05:40:51;3.70;99.90
59660;DHT22;45534;52.690;6.268;2023-01-29T05:43:19;3.70;99.90
59660;DHT22;45534;52.690;6.268;2023-01-29T05:45:56;3.70;99.90
59660;DHT22;45534;52.690;6.268;2023-01-29T05:48:22;3.70;99.90
59660;DHT22;45534;52.690;6.268;2023-01-29T05:50:48;3.70;99.90
59660;DHT22;45534;52.690;6.268;2023-01-29T05:53:14;3.70;99.90
59660;DHT22;45534;52.690;6.268;2023-01-29T05:55:46;3.70;99.90
59660;DHT22;45534;52.690;6.268;2023-01-29T05:58:12;3.70;99.90
59660;DHT22;45534;52.690;6.268;2023-01-29T06:00:38;3.70;99.90
59660;DHT22;45534;52.690;6.268;2023-01-29T06:03:04;3.70;99.90
59660;DHT22;45534;52.690;6.268;2023-01-29T06:05:30;3.70;99.90
59660;DHT22;45534;52.690;6.268;2023-01-29T06:07:55;3.70;99.90
59660;DHT22;45534;52.690;6.268;2023-01-29T06:10:21;3.70;99.90
59660;DHT22;45534;52.690;6.268;2023-01-29T06:12:47;3.70;99.90
59660;DHT22;45534;52.690;6.268;2023-01-29T06:15:13;3.70;99.90
59660;DHT22;45534;52.690;6.268;2023-01-29T06:17:42;3.70;99.90
59660;DHT22;45534;52.690;6.268;2023-01-29T06:20:08;3.70;99.90
59660;DHT22;45534;52.690;6.268;2023-01-29T06:22:34;3.80;99.90
59660;DHT22;45534;52.690;6.268;2023-01-29T06:24:59;3.70;99.90
59660;DHT22;45534;52.690;6.268;2023-01-29T06:27:25;3.70;99.90
59660;DHT22;45534;52.690;6.268;2023-01-29T06:29:51;3.70;99.90
59660;DHT22;45534;52.690;6.268;2023-01-29T06:32:17;3.80;99.90
59660;DHT22;45534;52.690;6.268;2023-01-29T06:34:42;3.80;99.90
59660;DHT22;45534;52.690;6.268;2023-01-29T06:37:08;3.70;99.90
59660;DHT22;45534;52.690;6.268;2023-01-29T06:39:34;3.80;99.90
59660;DHT22;45534;52.690;6.268;2023-01-29T06:41:59;3.80;99.90
59660;DHT22;45534;52.690;6.268;2023-01-29T06:44:25;3.80;99.90
59660;DHT22;45534;52.690;6.268;2023-01-29T06:46:51;3.80;99.90
59660;DHT22;45534;52.690;6.268;2023-01-29T06:49:16;3.80;99.90
59660;DHT22;45534;52.690;6.268;2023-01-29T06:51:42;3.70;99.90
59660;DHT22;45534;52.690;6.268;2023-01-29T06:54:09;3.80;99.90
59660;DHT22;45534;52.690;6.268;2023-01-29T06:56:34;3.80;99.90
59660;DHT22;45534;52.690;6.268;2023-01-29T06:59:00;3.80;99.90
59660;DHT22;45534;52.690;6.268;2023-01-29T07:01:26;3.80;99.90
59660;DHT22;45534;52.690;6.268;2023-01-29T07:03:52;3.80;99.90
59660;DHT22;45534;52.690;6.268;2023-01-29T07:06:18;3.80;99.90
59660;DHT22;45534;52.690;6.268;2023-01-29T07:08:44;3.80;99.90
59660;DHT22;45534;52.690;6.268;2023-01-29T07:11:10;3.80;99.90
59660;DHT22;45534;52.690;6.268;2023-01-29T07:13:36;3.80;99.90
59660;DHT22;45534;52.690;6.268;2023-01-29T07:16:03;3.80;99.90
59660;DHT22;45534;52.690;6.268;2023-01-29T07:18:29;3.80;99.90
59660;DHT22;45534;52.690;6.268;2023-01-29T07:20:56;3.80;99.90
59660;DHT22;45534;52.690;6.268;2023-01-29T07:23:22;3.80;99.90
59660;DHT22;45534;52.690;6.268;2023-01-29T07:25:48;3.80;99.90
59660;DHT22;45534;52.690;6.268;2023-01-29T07:28:17;3.80;99.90
59660;DHT22;45534;52.690;6.268;2023-01-29T07:30:44;3.80;99.90
59660;DHT22;45534;52.690;6.268;2023-01-29T07:33:10;3.80;99.90
59660;DHT22;45534;52.690;6.268;2023-01-29T07:35:41;3.80;99.90
59660;DHT22;45534;52.690;6.268;2023-01-29T07:38:08;3.80;99.90
59660;DHT22;45534;52.690;6.268;2023-01-29T07:40:34;3.80;99.90
59660;DHT22;45534;52.690;6.268;2023-01-29T07:43:01;3.80;99.90
59660;DHT22;45534;52.690;6.268;2023-01-29T07:45:28;3.80;99.90
59660;DHT22;45534;52.690;6.268;2023-01-29T07:47:54;3.80;99.90
59660;DHT22;45534;52.690;6.268;2023-01-29T07:50:24;3.80;99.90
59660;DHT22;45534;52.690;6.268;2023-01-29T07:52:53;3.80;99.90
59660;DHT22;45534;52.690;6.268;2023-01-29T07:55:18;3.80;99.90
59660;DHT22;45534;52.690;6.268;2023-01-29T07:57:44;3.80;99.90
59660;DHT22;45534;52.690;6.268;2023-01-29T08:00:10;3.80;99.90
59660;DHT22;45534;52.690;6.268;2023-01-29T08:02:36;3.80;99.90
59660;DHT22;45534;52.690;6.268;2023-01-29T08:05:02;3.80;99.90
59660;DHT22;45534;52.690;6.268;2023-01-29T08:07:28;3.80;99.90
59660;DHT22;45534;52.690;6.268;2023-01-29T08:09:54;3.80;99.90
59660;DHT22;45534;52.690;6.268;2023-01-29T08:12:19;3.80;99.90
59660;DHT22;45534;52.690;6.268;2023-01-29T08:14:45;3.80;99.90
59660;DHT22;45534;52.690;6.268;2023-01-29T08:17:12;3.80;99.90
59660;DHT22;45534;52.690;6.268;2023-01-29T08:19:38;3.80;99.90
59660;DHT22;45534;52.690;6.268;2023-01-29T08:22:04;3.90;99.90
59660;DHT22;45534;52.690;6.268;2023-01-29T08:24:30;3.90;99.90
59660;DHT22;45534;52.690;6.268;2023-01-29T08:26:56;3.90;99.90
59660;DHT22;45534;52.690;6.268;2023-01-29T08:29:22;3.90;99.90
59660;DHT22;45534;52.690;6.268;2023-01-29T08:31:47;3.90;99.90
59660;DHT22;45534;52.690;6.268;2023-01-29T08:34:13;3.90;99.90
59660;DHT22;45534;52.690;6.268;2023-01-29T08:36:39;3.90;99.90
59660;DHT22;45534;52.690;6.268;2023-01-29T08:39:05;3.90;99.90
59660;DHT22;45534;52.690;6.268;2023-01-29T08:41:31;4.00;99.90
59660;DHT22;45534;52.690;6.268;2023-01-29T08:43:56;4.00;99.90
59660;DHT22;45534;52.690;6.268;2023-01-29T08:46:22;4.00;99.90
59660;DHT22;45534;52.690;6.268;2023-01-29T08:48:48;4.00;99.90
59660;DHT22;45534;52.690;6.268;2023-01-29T08:51:14;4.00;99.90
59660;DHT22;45534;52.690;6.268;2023-01-29T08:53:40;4.00;99.90
59660;DHT22;45534;52.690;6.268;2023-01-29T08:56:05;4.10;99.90
59660;DHT22;45534;52.690;6.268;2023-01-29T08:58:31;4.10;99.90
59660;DHT22;45534;52.690;6.268;2023-01-29T09:01:08;4.10;99.90
59660;DHT22;45534;52.690;6.268;2023-01-29T09:03:34;4.10;99.90
59660;DHT22;45534;52.690;6.268;2023-01-29T09:06:00;4.10;99.90
59660;DHT22;45534;52.690;6.268;2023-01-29T09:08:25;4.20;99.90
59660;DHT22;45534;52.690;6.268;2023-01-29T09:10:51;4.20;99.90
59660;DHT22;45534;52.690;6.268;2023-01-29T09:13:16;4.20;99.90
59660;DHT22;45534;52.690;6.268;2023-01-29T09:15:42;4.20;99.90
59660;DHT22;45534;52.690;6.268;2023-01-29T09:18:08;4.20;99.90
59660;DHT22;45534;52.690;6.268;2023-01-29T09:20:33;4.20;99.90
59660;DHT22;45534;52.690;6.268;2023-01-29T09:23:06;4.30;99.90
59660;DHT22;45534;52.690;6.268;2023-01-29T09:25:32;4.30;99.90
59660;DHT22;45534;52.690;6.268;2023-01-29T09:27:58;4.40;99.90
59660;DHT22;45534;52.690;6.268;2023-01-29T09:30:24;4.40;99.90
59660;DHT22;45534;52.690;6.268;2023-01-29T09:32:49;4.50;99.90
59660;DHT22;45534;52.690;6.268;2023-01-29T09:35:15;4.50;99.90
59660;DHT22;45534;52.690;6.268;2023-01-29T09:37:41;4.50;99.90
59660;DHT22;45534;52.690;6.268;2023-01-29T09:40:22;4.50;99.90
59660;DHT22;45534;52.690;6.268;2023-01-29T09:43:01;4.50;99.90
59660;DHT22;45534;52.690;6.268;2023-01-29T09:45:29;4.60;99.90
59660;DHT22;45534;52.690;6.268;2023-01-29T09:48:00;4.60;99.90
59660;DHT22;45534;52.690;6.268;2023-01-29T09:50:39;4.70;99.90
59660;DHT22;45534;52.690;6.268;2023-01-29T09:55:48;4.70;99.90
59660;DHT22;45534;52.690;6.268;2023-01-29T10:09:28;4.80;99.90
59660;DHT22;45534;52.690;6.268;2023-01-29T10:23:26;4.90;99.90
59660;DHT22;45534;52.690;6.268;2023-01-29T10:25:54;4.90;99.90
59660;DHT22;45534;52.690;6.268;2023-01-29T10:28:28;5.00;99.90
59660;DHT22;45534;52.690;6.268;2023-01-29T10:31:15;5.00;99.90
59660;DHT22;45534;52.690;6.268;2023-01-29T10:33:51;5.00;99.90
59660;DHT22;45534;52.690;6.268;2023-01-29T10:36:21;5.00;99.90
59660;DHT22;45534;52.690;6.268;2023-01-29T10:38:49;5.00;99.90
59660;DHT22;45534;52.690;6.268;2023-01-29T10:46:56;5.00;99.90
59660;DHT22;45534;52.690;6.268;2023-01-29T11:00:38;5.10;99.90
59660;DHT22;45534;52.690;6.268;2023-01-29T11:03:22;5.00;99.90
59660;DHT22;45534;52.690;6.268;2023-01-29T11:05:50;5.10;99.90
59660;DHT22;45534;52.690;6.268;2023-01-29T11:08:22;5.10;99.90
59660;DHT22;45534;52.690;6.268;2023-01-29T11:13:31;5.20;99.90
59660;DHT22;45534;52.690;6.268;2023-01-29T11:15:57;5.20;99.90
59660;DHT22;45534;52.690;6.268;2023-01-29T11:18:23;5.30;99.90
59660;DHT22;45534;52.690;6.268;2023-01-29T11:21:02;5.30;99.90
59660;DHT22;45534;52.690;6.268;2023-01-29T11:23:32;5.30;99.90
59660;DHT22;45534;52.690;6.268;2023-01-29T11:25:59;5.30;99.90
59660;DHT22;45534;52.690;6.268;2023-01-29T11:28:46;5.20;99.90
59660;DHT22;45534;52.690;6.268;2023-01-29T11:31:26;5.20;99.90
59660;DHT22;45534;52.690;6.268;2023-01-29T11:34:15;5.30;99.90
59660;DHT22;45534;52.690;6.268;2023-01-29T11:36:42;5.30;99.90
59660;DHT22;45534;52.690;6.268;2023-01-29T11:39:23;5.40;99.90
59660;DHT22;45534;52.690;6.268;2023-01-29T11:42:21;5.40;99.90
59660;DHT22;45534;52.690;6.268;2023-01-29T11:44:47;5.40;99.90
59660;DHT22;45534;52.690;6.268;2023-01-29T11:47:21;5.50;99.90
59660;DHT22;45534;52.690;6.268;2023-01-29T11:49:59;5.40;99.90
59660;DHT22;45534;52.690;6.268;2023-01-29T11:52:34;5.40;99.90
59660;DHT22;45534;52.690;6.268;2023-01-29T11:55:22;5.40;99.90
59660;DHT22;45534;52.690;6.268;2023-01-29T12:00:40;5.20;99.90
59660;DHT22;45534;52.690;6.268;2023-01-29T12:05:31;5.20;99.90
59660;DHT22;45534;52.690;6.268;2023-01-29T12:07:59;5.10;99.90
59660;DHT22;45534;52.690;6.268;2023-01-29T12:10:39;5.10;99.90
59660;DHT22;45534;52.690;6.268;2023-01-29T12:15:38;5.00;99.90
59660;DHT22;45534;52.690;6.268;2023-01-29T12:18:25;5.00;99.90
59660;DHT22;45534;52.690;6.268;2023-01-29T12:21:04;5.00;99.90
59660;DHT22;45534;52.690;6.268;2023-01-29T12:29:22;5.00;99.90
59660;DHT22;45534;52.690;6.268;2023-01-29T12:32:05;5.00;99.90
59660;DHT22;45534;52.690;6.268;2023-01-29T12:34:56;5.10;99.90
59660;DHT22;45534;52.690;6.268;2023-01-29T12:37:56;5.10;99.90
59660;DHT22;45534;52.690;6.268;2023-01-29T12:40:28;5.10;99.90
59660;DHT22;45534;52.690;6.268;2023-01-29T12:43:02;5.10;99.90
59660;DHT22;45534;52.690;6.268;2023-01-29T12:45:29;5.00;99.90
59660;DHT22;45534;52.690;6.268;2023-01-29T12:48:07;5.00;99.90
59660;DHT22;45534;52.690;6.268;2023-01-29T12:50:36;5.00;99.90
59660;DHT22;45534;52.690;6.268;2023-01-29T12:53:26;5.00;99.90
59660;DHT22;45534;52.690;6.268;2023-01-29T12:55:57;4.90;99.90
59660;DHT22;45534;52.690;6.268;2023-01-29T13:01:01;4.90;99.90
59660;DHT22;45534;52.690;6.268;2023-01-29T13:04:05;4.90;99.90
59660;DHT22;45534;52.690;6.268;2023-01-29T13:06:35;4.90;99.90
59660;DHT22;45534;52.690;6.268;2023-01-29T13:09:10;4.90;99.90
59660;DHT22;45534;52.690;6.268;2023-01-29T13:11:52;4.90;99.90
59660;DHT22;45534;52.690;6.268;2023-01-29T13:14:34;4.80;99.90
59660;DHT22;45534;52.690;6.268;2023-01-29T13:17:40;4.70;99.90
59660;DHT22;45534;52.690;6.268;2023-01-29T13:22:41;4.70;99.90
59660;DHT22;45534;52.690;6.268;2023-01-29T13:25:14;4.70;99.90
59660;DHT22;45534;52.690;6.268;2023-01-29T13:27:42;4.70;99.90
59660;DHT22;45534;52.690;6.268;2023-01-29T13:30:27;4.70;99.90
59660;DHT22;45534;52.690;6.268;2023-01-29T13:32:55;4.70;99.90
59660;DHT22;45534;52.690;6.268;2023-01-29T13:35:38;4.70;99.90
59660;DHT22;45534;52.690;6.268;2023-01-29T13:38:05;4.80;99.90
59660;DHT22;45534;52.690;6.268;2023-01-29T13:40:48;4.80;99.90
59660;DHT22;45534;52.690;6.268;2023-01-29T13:43:20;4.80;99.90
59660;DHT22;45534;52.690;6.268;2023-01-29T13:45:48;4.80;99.90
59660;DHT22;45534;52.690;6.268;2023-01-29T13:48:27;4.90;99.90
59660;DHT22;45534;52.690;6.268;2023-01-29T13:50:55;4.90;99.90
59660;DHT22;45534;52.690;6.268;2023-01-29T13:53:24;4.90;99.90
59660;DHT22;45534;52.690;6.268;2023-01-29T13:55:50;4.90;99.90
59660;DHT22;45534;52.690;6.268;2023-01-29T14:00:56;4.90;99.90
59660;DHT22;45534;52.690;6.268;2023-01-29T14:08:35;5.00;99.90
59660;DHT22;45534;52.690;6.268;2023-01-29T14:13:41;5.10;99.90
59660;DHT22;45534;52.690;6.268;2023-01-29T14:18:57;5.10;99.90
59660;DHT22;45534;52.690;6.268;2023-01-29T14:21:26;5.00;99.90
59660;DHT22;45534;52.690;6.268;2023-01-29T14:24:17;5.00;99.90
59660;DHT22;45534;52.690;6.268;2023-01-29T14:26:46;5.00;99.90
59660;DHT22;45534;52.690;6.268;2023-01-29T14:31:54;4.90;99.90
59660;DHT22;45534;52.690;6.268;2023-01-29T14:34:41;5.00;99.90
59660;DHT22;45534;52.690;6.268;2023-01-29T14:47:20;4.80;99.90
59660;DHT22;45534;52.690;6.268;2023-01-29T14:49:59;4.80;99.90
59660;DHT22;45534;52.690;6.268;2023-01-29T14:52:36;4.80;99.90
59660;DHT22;45534;52.690;6.268;2023-01-29T14:55:06;4.80;99.90
59660;DHT22;45534;52.690;6.268;2023-01-29T14:57:32;4.80;99.90
59660;DHT22;45534;52.690;6.268;2023-01-29T15:00:01;4.80;99.90
59660;DHT22;45534;52.690;6.268;2023-01-29T15:02:41;4.80;99.90
59660;DHT22;45534;52.690;6.268;2023-01-29T15:05:18;4.80;99.90
59660;DHT22;45534;52.690;6.268;2023-01-29T15:08:14;4.80;99.90
59660;DHT22;45534;52.690;6.268;2023-01-29T15:10:52;4.80;99.90
59660;DHT22;45534;52.690;6.268;2023-01-29T15:16:21;4.80;99.90
59660;DHT22;45534;52.690;6.268;2023-01-29T15:18:53;4.90;99.90
59660;DHT22;45534;52.690;6.268;2023-01-29T15:21:21;4.80;99.90
59660;DHT22;45534;52.690;6.268;2023-01-29T15:23:47;4.80;99.90
59660;DHT22;45534;52.690;6.268;2023-01-29T15:26:27;4.90;99.90
59660;DHT22;45534;52.690;6.268;2023-01-29T15:29:00;4.90;99.90
59660;DHT22;45534;52.690;6.268;2023-01-29T15:31:27;4.90;99.90
59660;DHT22;45534;52.690;6.268;2023-01-29T15:33:54;4.90;99.90
59660;DHT22;45534;52.690;6.268;2023-01-29T15:36:26;4.90;99.90
59660;DHT22;45534;52.690;6.268;2023-01-29T15:41:34;4.90;99.90
59660;DHT22;45534;52.690;6.268;2023-01-29T15:44:00;4.90;99.90
59660;DHT22;45534;52.690;6.268;2023-01-29T15:46:28;4.90;99.90
59660;DHT22;45534;52.690;6.268;2023-01-29T15:48:56;4.90;99.90
59660;DHT22;45534;52.690;6.268;2023-01-29T15:51:25;4.90;99.90
59660;DHT22;45534;52.690;6.268;2023-01-29T15:53:55;4.90;99.90
59660;DHT22;45534;52.690;6.268;2023-01-29T15:56:28;4.90;99.90
59660;DHT22;45534;52.690;6.268;2023-01-29T15:58:58;4.90;99.90
59660;DHT22;45534;52.690;6.268;2023-01-29T16:01:28;4.90;99.90
59660;DHT22;45534;52.690;6.268;2023-01-29T16:03:55;4.90;99.90
59660;DHT22;45534;52.690;6.268;2023-01-29T16:06:21;4.90;99.90
59660;DHT22;45534;52.690;6.268;2023-01-29T16:08:50;4.90;99.90
59660;DHT22;45534;52.690;6.268;2023-01-29T16:11:18;4.90;99.90
59660;DHT22;45534;52.690;6.268;2023-01-29T16:13:47;4.90;99.90
59660;DHT22;45534;52.690;6.268;2023-01-29T16:16:21;4.90;99.90
59660;DHT22;45534;52.690;6.268;2023-01-29T16:18:48;4.90;99.90
59660;DHT22;45534;52.690;6.268;2023-01-29T16:21:35;4.80;99.90
59660;DHT22;45534;52.690;6.268;2023-01-29T16:24:04;4.80;99.90
59660;DHT22;45534;52.690;6.268;2023-01-29T16:26:36;4.80;99.90
59660;DHT22;45534;52.690;6.268;2023-01-29T16:29:08;4.80;99.90
59660;DHT22;45534;52.690;6.268;2023-01-29T16:31:35;4.80;99.90
59660;DHT22;45534;52.690;6.268;2023-01-29T16:34:18;4.80;99.90
59660;DHT22;45534;52.690;6.268;2023-01-29T16:36:47;4.80;99.90
59660;DHT22;45534;52.690;6.268;2023-01-29T16:39:22;4.80;99.90
59660;DHT22;45534;52.690;6.268;2023-01-29T16:42:18;4.80;99.90
59660;DHT22;45534;52.690;6.268;2023-01-29T16:47:35;4.80;99.90
59660;DHT22;45534;52.690;6.268;2023-01-29T16:50:25;4.80;99.90
59660;DHT22;45534;52.690;6.268;2023-01-29T16:53:12;4.80;99.90
59660;DHT22;45534;52.690;6.268;2023-01-29T16:55:44;4.70;99.90
59660;DHT22;45534;52.690;6.268;2023-01-29T16:58:20;4.80;99.90
59660;DHT22;45534;52.690;6.268;2023-01-29T17:01:10;4.80;99.90
59660;DHT22;45534;52.690;6.268;2023-01-29T17:03:36;4.70;99.90
59660;DHT22;45534;52.690;6.268;2023-01-29T17:06:20;4.70;99.90
59660;DHT22;45534;52.690;6.268;2023-01-29T17:08:46;4.70;99.90
59660;DHT22;45534;52.690;6.268;2023-01-29T17:11:23;4.70;99.90
59660;DHT22;45534;52.690;6.268;2023-01-29T17:13:50;4.70;99.90
59660;DHT22;45534;52.690;6.268;2023-01-29T17:16:22;4.70;99.90
59660;DHT22;45534;52.690;6.268;2023-01-29T17:18:50;4.70;99.90
59660;DHT22;45534;52.690;6.268;2023-01-29T17:21:16;4.70;99.90
59660;DHT22;45534;52.690;6.268;2023-01-29T17:23:41;4.70;99.90
59660;DHT22;45534;52.690;6.268;2023-01-29T17:26:11;4.70;99.90
59660;DHT22;45534;52.690;6.268;2023-01-29T17:28:37;4.70;99.90
59660;DHT22;45534;52.690;6.268;2023-01-29T17:31:03;4.80;99.90
59660;DHT22;45534;52.690;6.268;2023-01-29T17:33:29;4.80;99.90
59660;DHT22;45534;52.690;6.268;2023-01-29T17:35:55;4.80;99.90
59660;DHT22;45534;52.690;6.268;2023-01-29T17:38:21;4.70;99.90
59660;DHT22;45534;52.690;6.268;2023-01-29T17:43:21;4.80;99.90
59660;DHT22;45534;52.690;6.268;2023-01-29T17:45:47;4.80;99.90
59660;DHT22;45534;52.690;6.268;2023-01-29T17:48:25;4.80;99.90
59660;DHT22;45534;52.690;6.268;2023-01-29T17:50:54;4.90;99.90
59660;DHT22;45534;52.690;6.268;2023-01-29T17:53:21;4.80;99.90
59660;DHT22;45534;52.690;6.268;2023-01-29T17:55:47;4.80;99.90
59660;DHT22;45534;52.690;6.268;2023-01-29T17:58:24;4.80;99.90
59660;DHT22;45534;52.690;6.268;2023-01-29T18:00:50;4.80;99.90
59660;DHT22;45534;52.690;6.268;2023-01-29T18:03:16;4.80;99.90
59660;DHT22;45534;52.690;6.268;2023-01-29T18:05:43;4.80;99.90
59660;DHT22;45534;52.690;6.268;2023-01-29T18:08:29;4.90;99.90
59660;DHT22;45534;52.690;6.268;2023-01-29T18:10:57;4.90;99.90
59660;DHT22;45534;52.690;6.268;2023-01-29T18:13:23;4.80;99.90
59660;DHT22;45534;52.690;6.268;2023-01-29T18:15:49;4.80;99.90
59660;DHT22;45534;52.690;6.268;2023-01-29T18:18:18;4.80;99.90
59660;DHT22;45534;52.690;6.268;2023-01-29T18:20:44;4.80;99.90
59660;DHT22;45534;52.690;6.268;2023-01-29T18:23:10;4.80;99.90
59660;DHT22;45534;52.690;6.268;2023-01-29T18:25:36;4.80;99.90
59660;DHT22;45534;52.690;6.268;2023-01-29T18:28:03;4.80;99.90
59660;DHT22;45534;52.690;6.268;2023-01-29T18:30:29;4.80;99.90
59660;DHT22;45534;52.690;6.268;2023-01-29T18:32:55;4.80;99.90
59660;DHT22;45534;52.690;6.268;2023-01-29T18:35:22;4.80;99.90
59660;DHT22;45534;52.690;6.268;2023-01-29T18:37:48;4.80;99.90
59660;DHT22;45534;52.690;6.268;2023-01-29T18:40:14;4.80;99.90
59660;DHT22;45534;52.690;6.268;2023-01-29T18:42:42;4.80;99.90